Time;durP1;ratioP1;P1;durP2;ratioP2;P2;SDS_P1;SDS_P2;PMS_P1;PMS_P2;Temp;Humidity;BMP_temperature;BMP_pressure;BME280_temperature;BME280_humidity;BME280_pressure;Samples;Min_cycle;Max_cycle;Signal;HPM_P1;HPM_P2
2021/07/12 00:00:32;;;;;;;;;;;18.20;99.90;;;;;;5036861;28;20409;-72
2021/07/12 00:02:57;;;;;;;;;;;18.20;99.90;;;;;;5036007;28;20390;-72
2021/07/12 00:05:24;;;;;;;;;;;18.20;99.90;;;;;;5035277;28;19964;-72
2021/07/12 00:07:49;;;;;;;;;;;18.20;99.90;;;;;;5036917;28;19963;-72
2021/07/12 00:10:17;;;;;;;;;;;18.10;99.90;;;;;;5036714;28;20328;-72
2021/07/12 00:12:43;;;;;;;;;;;18.10;99.90;;;;;;5051619;28;19916;-72
2021/07/12 00:15:09;;;;;;;;;;;18.10;99.90;;;;;;5035582;28;19909;-72
2021/07/12 00:17:36;;;;;;;;;;;18.10;99.90;;;;;;5053403;28;19909;-72
2021/07/12 00:20:03;;;;;;;;;;;18.10;99.90;;;;;;5039835;28;19987;-73
2021/07/12 00:22:29;;;;;;;;;;;18.00;99.90;;;;;;5041246;28;20366;-73
2021/07/12 00:24:54;;;;;;;;;;;18.00;99.90;;;;;;5036556;28;20012;-72
2021/07/12 00:27:20;;;;;;;;;;;17.90;99.90;;;;;;5037437;28;19916;-72
2021/07/12 00:29:45;;;;;;;;;;;17.90;99.90;;;;;;5036249;28;19909;-72
2021/07/12 00:32:10;;;;;;;;;;;17.90;99.90;;;;;;5036738;28;20289;-72
2021/07/12 00:34:36;;;;;;;;;;;17.90;99.90;;;;;;5036236;28;19909;-72
2021/07/12 00:37:01;;;;;;;;;;;17.90;99.90;;;;;;5035594;28;19962;-72
2021/07/12 00:39:27;;;;;;;;;;;17.90;99.90;;;;;;5035710;28;20384;-72
2021/07/12 00:41:53;;;;;;;;;;;17.90;99.90;;;;;;5039571;28;19917;-73
2021/07/12 00:44:18;;;;;;;;;;;17.80;99.90;;;;;;5037501;28;20270;-72
2021/07/12 00:46:44;;;;;;;;;;;17.80;99.90;;;;;;5036017;28;20395;-72
2021/07/12 00:49:09;;;;;;;;;;;17.80;99.90;;;;;;5036850;28;19909;-72
2021/07/12 00:51:35;;;;;;;;;;;17.80;99.90;;;;;;5032884;28;19909;-73
2021/07/12 00:54:00;;;;;;;;;;;17.80;99.90;;;;;;5035364;28;19909;-72
2021/07/12 00:56:26;;;;;;;;;;;17.80;99.90;;;;;;5034799;28;19912;-72
2021/07/12 00:58:51;;;;;;;;;;;17.80;99.90;;;;;;5034446;28;19971;-72
2021/07/12 01:01:17;;;;;;;;;;;17.80;99.90;;;;;;5041804;28;19916;-72
2021/07/12 01:03:43;;;;;;;;;;;17.80;99.90;;;;;;5044472;28;19928;-72
2021/07/12 01:06:08;;;;;;;;;;;17.70;99.90;;;;;;5036461;28;20381;-72
2021/07/12 01:08:34;;;;;;;;;;;17.70;99.90;;;;;;5038608;28;19920;-72
2021/07/12 01:11:08;;;;;;;;;;;17.70;99.90;;;;;;5041276;28;20300;-72
2021/07/12 01:14:06;;;;;;;;;;;17.70;99.90;;;;;;5036029;28;19913;-72
2021/07/12 01:16:58;;;;;;;;;;;17.70;99.90;;;;;;5021852;28;19908;-72
2021/07/12 01:19:49;;;;;;;;;;;17.60;99.90;;;;;;5038143;28;19920;-72
2021/07/12 01:22:33;;;;;;;;;;;17.60;99.90;;;;;;5036134;28;19949;-72
2021/07/12 01:25:10;;;;;;;;;;;17.60;99.90;;;;;;5042737;28;19919;-72
2021/07/12 01:27:54;;;;;;;;;;;17.60;99.90;;;;;;5035739;28;20357;-72
2021/07/12 01:30:30;;;;;;;;;;;17.60;99.90;;;;;;5035781;28;19909;-73
2021/07/12 01:33:15;;;;;;;;;;;17.60;99.90;;;;;;5038281;28;19909;-72
2021/07/12 01:35:56;;;;;;;;;;;17.60;99.90;;;;;;5035683;28;19909;-72
2021/07/12 01:38:40;;;;;;;;;;;17.50;99.90;;;;;;5035633;28;19948;-72
2021/07/12 01:41:23;;;;;;;;;;;17.60;99.90;;;;;;5036837;28;19909;-73
2021/07/12 01:43:48;;;;;;;;;;;17.50;99.90;;;;;;5035468;28;19959;-72
2021/07/12 01:46:22;;;;;;;;;;;17.50;99.90;;;;;;5033561;28;20405;-72
2021/07/12 01:49:00;;;;;;;;;;;17.50;99.90;;;;;;5035104;28;19916;-72
2021/07/12 01:51:38;;;;;;;;;;;17.40;99.90;;;;;;5035918;28;19909;-72
2021/07/12 01:54:07;;;;;;;;;;;17.40;99.90;;;;;;5034282;28;19912;-72
2021/07/12 01:56:40;;;;;;;;;;;17.40;99.90;;;;;;5039671;28;20313;-72
2021/07/12 01:59:08;;;;;;;;;;;17.40;99.90;;;;;;5031287;28;19916;-73
2021/07/12 02:01:35;;;;;;;;;;;17.40;99.90;;;;;;5042614;28;19913;-72
2021/07/12 02:04:02;;;;;;;;;;;17.40;99.90;;;;;;5043094;28;20281;-72
2021/07/12 02:06:28;;;;;;;;;;;17.30;99.90;;;;;;5046763;28;19909;-72
2021/07/12 02:08:55;;;;;;;;;;;17.30;99.90;;;;;;5050026;28;19912;-72
2021/07/12 02:11:21;;;;;;;;;;;17.30;99.90;;;;;;5048697;28;19909;-72
2021/07/12 02:13:47;;;;;;;;;;;17.30;99.90;;;;;;5063049;28;19916;-72
2021/07/12 02:16:14;;;;;;;;;;;17.30;99.90;;;;;;5048739;28;19908;-72
2021/07/12 02:18:41;;;;;;;;;;;17.30;99.90;;;;;;5064795;28;19908;-73
2021/07/12 02:21:07;;;;;;;;;;;17.30;99.90;;;;;;5050960;28;19908;-73
2021/07/12 02:23:33;;;;;;;;;;;17.30;99.90;;;;;;5067087;28;19920;-72
2021/07/12 02:25:59;;;;;;;;;;;17.30;99.90;;;;;;5055436;28;19916;-73
2021/07/12 02:28:25;;;;;;;;;;;17.30;99.90;;;;;;5048283;28;19905;-72
2021/07/12 02:30:52;;;;;;;;;;;17.30;99.90;;;;;;5055631;28;19916;-72
2021/07/12 02:33:17;;;;;;;;;;;17.30;99.90;;;;;;5048070;28;20362;-73
2021/07/12 02:35:43;;;;;;;;;;;17.20;99.90;;;;;;5046425;28;19913;-72
2021/07/12 02:38:09;;;;;;;;;;;17.20;99.90;;;;;;5045591;28;19916;-72
2021/07/12 02:40:35;;;;;;;;;;;17.20;99.90;;;;;;5048422;28;19919;-73
2021/07/12 02:43:02;;;;;;;;;;;17.20;99.90;;;;;;5062868;28;19908;-73
2021/07/12 02:45:29;;;;;;;;;;;17.20;99.90;;;;;;5063113;28;19917;-72
2021/07/12 02:47:54;;;;;;;;;;;17.20;99.90;;;;;;5056395;28;19992;-73
2021/07/12 02:50:20;;;;;;;;;;;17.20;99.90;;;;;;5054389;28;19893;-72
2021/07/12 02:52:52;;;;;;;;;;;17.20;99.90;;;;;;5071690;28;19955;-72
2021/07/12 02:55:17;;;;;;;;;;;17.10;99.90;;;;;;5059836;28;19909;-73
2021/07/12 02:57:43;;;;;;;;;;;17.10;99.90;;;;;;5055492;28;19971;-71
2021/07/12 03:00:10;;;;;;;;;;;17.10;99.90;;;;;;5063398;28;19909;-72
2021/07/12 03:02:36;;;;;;;;;;;17.10;99.90;;;;;;5054749;28;19900;-73
2021/07/12 03:05:03;;;;;;;;;;;17.10;99.90;;;;;;5065063;28;19903;-72
2021/07/12 03:07:40;;;;;;;;;;;17.10;99.90;;;;;;5057448;28;19916;-72
2021/07/12 03:10:09;;;;;;;;;;;17.10;99.90;;;;;;5055812;28;19909;-72
2021/07/12 03:12:42;;;;;;;;;;;17.10;99.90;;;;;;5068728;28;19893;-73
2021/07/12 03:15:10;;;;;;;;;;;17.10;99.90;;;;;;5054311;28;19924;-72
2021/07/12 03:17:39;;;;;;;;;;;17.10;99.90;;;;;;5040392;28;20277;-73
2021/07/12 03:20:06;;;;;;;;;;;17.10;99.90;;;;;;5039513;28;20384;-72
2021/07/12 03:22:32;;;;;;;;;;;17.00;99.90;;;;;;5039324;28;19913;-72
2021/07/12 03:24:58;;;;;;;;;;;17.10;99.90;;;;;;5037811;28;19901;-72
2021/07/12 03:27:24;;;;;;;;;;;17.10;99.90;;;;;;5037083;28;20286;-72
2021/07/12 03:29:50;;;;;;;;;;;17.10;99.90;;;;;;5039188;28;19967;-72
2021/07/12 03:32:21;;;;;;;;;;;17.10;99.90;;;;;;5046696;28;19908;-72
2021/07/12 03:34:48;;;;;;;;;;;17.10;99.90;;;;;;5056426;28;20398;-72
2021/07/12 03:37:14;;;;;;;;;;;17.10;99.90;;;;;;5041247;28;19913;-72
2021/07/12 03:39:39;;;;;;;;;;;17.10;99.90;;;;;;5042389;28;19916;-73
2021/07/12 03:42:05;;;;;;;;;;;17.10;99.90;;;;;;5039943;28;19916;-72
2021/07/12 03:44:31;;;;;;;;;;;17.20;99.90;;;;;;5038750;28;20274;-72
2021/07/12 03:46:56;;;;;;;;;;;17.20;99.90;;;;;;5033897;28;19909;-73
2021/07/12 03:49:22;;;;;;;;;;;17.20;99.90;;;;;;5035260;28;19909;-72
2021/07/12 03:51:51;;;;;;;;;;;17.30;99.90;;;;;;5036943;28;19909;-72
2021/07/12 03:54:17;;;;;;;;;;;17.30;99.90;;;;;;5047191;28;19931;-72
2021/07/12 03:56:42;;;;;;;;;;;17.30;99.90;;;;;;5043977;28;19926;-72
2021/07/12 03:59:08;;;;;;;;;;;17.30;99.90;;;;;;5039481;28;19980;-72
2021/07/12 04:01:33;;;;;;;;;;;17.40;99.90;;;;;;5047150;28;20330;-73
2021/07/12 04:03:59;;;;;;;;;;;17.40;99.90;;;;;;5033163;28;19980;-72
2021/07/12 04:06:25;;;;;;;;;;;17.40;99.90;;;;;;5047878;28;19916;-71
2021/07/12 04:08:50;;;;;;;;;;;17.40;99.90;;;;;;5048564;28;20027;-72
2021/07/12 04:11:17;;;;;;;;;;;17.40;99.90;;;;;;5036936;28;19909;-72
2021/07/12 04:13:42;;;;;;;;;;;17.50;99.90;;;;;;5042928;28;19916;-72
2021/07/12 04:16:08;;;;;;;;;;;17.50;99.90;;;;;;5037188;28;19909;-73
2021/07/12 04:18:34;;;;;;;;;;;17.50;99.90;;;;;;5036611;28;19913;-72
2021/07/12 04:21:00;;;;;;;;;;;17.50;99.90;;;;;;5053555;28;19909;-72
2021/07/12 04:23:26;;;;;;;;;;;17.60;99.90;;;;;;5051406;28;19916;-72
2021/07/12 04:25:51;;;;;;;;;;;17.60;99.90;;;;;;5036275;28;19913;-72
2021/07/12 04:28:17;;;;;;;;;;;17.60;99.90;;;;;;5035309;28;20342;-72
2021/07/12 04:30:42;;;;;;;;;;;17.60;99.90;;;;;;5036126;28;20000;-72
2021/07/12 04:33:08;;;;;;;;;;;17.70;99.90;;;;;;5039037;28;19909;-72
2021/07/12 04:35:33;;;;;;;;;;;17.80;99.90;;;;;;5036995;28;20008;-72
2021/07/12 04:37:59;;;;;;;;;;;17.80;99.90;;;;;;5034928;28;19978;-72
2021/07/12 04:40:24;;;;;;;;;;;17.80;99.90;;;;;;5050078;28;20373;-72
2021/07/12 04:42:50;;;;;;;;;;;17.90;99.90;;;;;;5042390;28;19909;-72
2021/07/12 04:45:15;;;;;;;;;;;17.90;99.90;;;;;;5038670;28;19958;-72
2021/07/12 04:47:41;;;;;;;;;;;18.00;99.90;;;;;;5030683;28;20354;-72
2021/07/12 04:50:07;;;;;;;;;;;18.00;99.90;;;;;;5031086;28;19909;-72
2021/07/12 04:52:33;;;;;;;;;;;18.00;99.90;;;;;;5034234;28;19916;-77
2021/07/12 04:54:59;;;;;;;;;;;18.00;99.90;;;;;;5034399;28;19909;-79
2021/07/12 04:57:25;;;;;;;;;;;18.10;99.90;;;;;;5035979;28;20328;-79
2021/07/12 04:59:51;;;;;;;;;;;18.10;99.90;;;;;;5034272;28;20259;-78
2021/07/12 05:02:17;;;;;;;;;;;18.20;99.90;;;;;;5034870;28;20326;-79
2021/07/12 05:04:43;;;;;;;;;;;18.20;99.90;;;;;;5034148;28;19952;-79
2021/07/12 05:07:10;;;;;;;;;;;18.20;99.90;;;;;;5028710;28;20312;-78
2021/07/12 05:09:36;;;;;;;;;;;18.30;99.90;;;;;;5034876;28;19928;-79
2021/07/12 05:12:01;;;;;;;;;;;18.30;99.90;;;;;;5035405;28;19909;-79
2021/07/12 05:14:27;;;;;;;;;;;18.40;99.90;;;;;;5034795;28;19916;-79
2021/07/12 05:16:53;;;;;;;;;;;18.50;99.90;;;;;;5031455;28;19909;-78
2021/07/12 05:19:19;;;;;;;;;;;18.50;99.90;;;;;;5035372;28;19909;-78
2021/07/12 05:21:45;;;;;;;;;;;18.60;99.90;;;;;;5030044;28;19912;-77
2021/07/12 05:24:10;;;;;;;;;;;18.70;99.90;;;;;;5034865;28;20022;-79
2021/07/12 05:26:36;;;;;;;;;;;18.80;99.90;;;;;;5035990;28;20358;-80
2021/07/12 05:29:01;;;;;;;;;;;18.80;99.90;;;;;;5035426;28;19916;-79
2021/07/12 05:31:27;;;;;;;;;;;18.90;99.90;;;;;;5042908;28;20282;-79
2021/07/12 05:33:52;;;;;;;;;;;19.00;99.90;;;;;;5037713;28;20266;-79
2021/07/12 05:36:18;;;;;;;;;;;19.10;99.90;;;;;;5036722;28;19909;-79
2021/07/12 05:38:44;;;;;;;;;;;19.20;99.90;;;;;;5053403;28;19950;-79
2021/07/12 05:41:09;;;;;;;;;;;19.30;99.90;;;;;;5039542;28;20270;-79
2021/07/12 05:43:35;;;;;;;;;;;19.40;99.90;;;;;;5035184;28;20326;-79
2021/07/12 05:46:01;;;;;;;;;;;19.40;99.90;;;;;;5037897;28;19959;-79
2021/07/12 05:48:27;;;;;;;;;;;19.50;99.90;;;;;;5035899;28;19908;-79
2021/07/12 05:50:52;;;;;;;;;;;19.60;99.90;;;;;;5036830;28;20383;-78
2021/07/12 05:53:18;;;;;;;;;;;19.70;99.90;;;;;;5038793;28;20261;-77
2021/07/12 05:55:43;;;;;;;;;;;19.70;99.90;;;;;;5044047;28;19912;-79
2021/07/12 05:58:09;;;;;;;;;;;19.70;99.90;;;;;;5048817;28;19940;-79
2021/07/12 06:00:34;;;;;;;;;;;19.70;99.90;;;;;;5040034;28;20261;-80
2021/07/12 06:03:00;;;;;;;;;;;19.70;99.90;;;;;;5041254;28;19924;-79
2021/07/12 06:05:26;;;;;;;;;;;19.80;99.90;;;;;;5028666;28;19913;-79
2021/07/12 06:07:51;;;;;;;;;;;19.90;99.90;;;;;;5031033;28;20369;-79
2021/07/12 06:10:17;;;;;;;;;;;19.90;99.90;;;;;;5032987;28;19916;-79
2021/07/12 06:12:42;;;;;;;;;;;20.00;99.90;;;;;;5033913;28;20003;-80
2021/07/12 06:15:08;;;;;;;;;;;20.10;99.90;;;;;;5034265;28;19916;-80
2021/07/12 06:17:34;;;;;;;;;;;20.20;99.90;;;;;;5034707;28;19915;-79
2021/07/12 06:20:00;;;;;;;;;;;20.30;99.90;;;;;;5034766;28;19905;-78
2021/07/12 06:22:25;;;;;;;;;;;20.70;99.90;;;;;;5032939;28;20242;-79
2021/07/12 06:24:51;;;;;;;;;;;20.80;99.90;;;;;;5033296;28;20500;-80
2021/07/12 06:27:16;;;;;;;;;;;21.40;99.90;;;;;;5030755;28;19909;-80
2021/07/12 06:29:42;;;;;;;;;;;22.40;99.90;;;;;;5031869;28;19913;-80
2021/07/12 06:32:08;;;;;;;;;;;23.30;99.90;;;;;;5034407;28;19951;-80
2021/07/12 06:34:33;;;;;;;;;;;24.10;99.90;;;;;;5031337;28;19909;-80
2021/07/12 06:36:59;;;;;;;;;;;24.40;99.90;;;;;;5033096;28;20433;-81
2021/07/12 06:39:25;;;;;;;;;;;24.80;99.90;;;;;;5032496;28;19920;-80
2021/07/12 06:41:50;;;;;;;;;;;25.60;99.90;;;;;;5031627;28;19909;-79
2021/07/12 06:44:16;;;;;;;;;;;26.50;99.90;;;;;;5033226;28;19913;-80
2021/07/12 06:46:41;;;;;;;;;;;27.00;99.90;;;;;;5030869;28;19909;-80
2021/07/12 06:49:06;;;;;;;;;;;27.10;99.90;;;;;;5032190;28;20254;-80
2021/07/12 06:51:32;;;;;;;;;;;27.30;99.90;;;;;;5033121;28;19909;-80
2021/07/12 06:53:58;;;;;;;;;;;27.20;99.90;;;;;;5033601;28;19963;-80
2021/07/12 06:56:23;;;;;;;;;;;27.30;99.90;;;;;;5032144;28;20015;-83
2021/07/12 06:58:49;;;;;;;;;;;27.30;99.90;;;;;;5033648;28;19935;-80
2021/07/12 07:01:14;;;;;;;;;;;26.90;99.90;;;;;;5033804;28;19909;-80
2021/07/12 07:03:41;;;;;;;;;;;26.30;99.90;;;;;;5031490;28;19925;-79
2021/07/12 07:06:07;;;;;;;;;;;25.70;99.90;;;;;;5034021;28;19955;-79
2021/07/12 07:08:32;;;;;;;;;;;25.10;99.90;;;;;;5049631;28;20328;-75
2021/07/12 07:10:58;;;;;;;;;;;24.90;99.90;;;;;;5033223;28;20289;-78
2021/07/12 07:13:24;;;;;;;;;;;25.30;99.90;;;;;;5036115;28;19959;-78
2021/07/12 07:15:49;;;;;;;;;;;25.80;99.90;;;;;;5032453;28;20397;-78
2021/07/12 07:18:15;;;;;;;;;;;25.50;99.90;;;;;;5035206;28;20003;-80
2021/07/12 07:20:40;;;;;;;;;;;25.40;99.90;;;;;;5035214;28;19909;-79
2021/07/12 07:23:06;;;;;;;;;;;26.10;99.90;;;;;;5036444;28;19909;-81
2021/07/12 07:25:31;;;;;;;;;;;26.90;99.90;;;;;;5049679;28;20277;-80
2021/07/12 07:27:57;;;;;;;;;;;27.30;99.90;;;;;;5046304;28;19917;-80
2021/07/12 07:30:22;;;;;;;;;;;27.60;99.90;;;;;;5033736;28;19913;-80
2021/07/12 07:32:48;;;;;;;;;;;27.90;99.90;;;;;;5028265;28;19909;-79
2021/07/12 07:35:14;;;;;;;;;;;28.00;99.90;;;;;;5029152;28;19916;-79
2021/07/12 07:37:39;;;;;;;;;;;27.60;99.90;;;;;;5025820;28;20405;-79
2021/07/12 07:40:07;;;;;;;;;;;26.90;99.90;;;;;;5024142;28;19932;-80
2021/07/12 07:42:33;;;;;;;;;;;26.10;99.90;;;;;;5026676;28;19915;-79
2021/07/12 07:45:00;;;;;;;;;;;25.50;99.90;;;;;;5026566;28;19917;-78
2021/07/12 07:47:26;;;;;;;;;;;25.30;99.90;;;;;;5026030;28;19909;-79
2021/07/12 07:49:52;;;;;;;;;;;25.20;99.90;;;;;;5025849;28;19916;-80
2021/07/12 07:52:18;;;;;;;;;;;24.90;99.90;;;;;;5026296;28;19960;-79
2021/07/12 07:54:43;;;;;;;;;;;24.60;99.90;;;;;;5026834;28;19928;-78
2021/07/12 07:57:08;;;;;;;;;;;24.40;99.90;;;;;;5033333;28;19917;-79
2021/07/12 07:59:34;;;;;;;;;;;24.10;99.90;;;;;;5034189;28;19945;-79
2021/07/12 08:01:59;;;;;;;;;;;23.90;99.90;;;;;;5028615;28;20353;-79
2021/07/12 08:04:25;;;;;;;;;;;23.70;99.90;;;;;;5030754;28;19963;-78
2021/07/12 08:06:51;;;;;;;;;;;23.60;99.90;;;;;;5039214;28;19916;-79
2021/07/12 08:09:16;;;;;;;;;;;23.70;99.90;;;;;;5032449;28;20376;-79
2021/07/12 08:11:46;;;;;;;;;;;23.60;99.90;;;;;;5037260;28;19931;-80
2021/07/12 08:14:11;;;;;;;;;;;23.80;99.90;;;;;;5037103;28;19909;-78
2021/07/12 08:16:37;;;;;;;;;;;23.90;99.90;;;;;;5021993;28;20358;-79
2021/07/12 08:19:02;;;;;;;;;;;24.00;99.90;;;;;;5036751;28;19912;-79
2021/07/12 08:21:28;;;;;;;;;;;24.00;99.90;;;;;;5034813;28;19917;-81
2021/07/12 08:23:53;;;;;;;;;;;24.20;99.90;;;;;;5029137;28;20320;-81
2021/07/12 08:26:19;;;;;;;;;;;24.30;99.90;;;;;;5026608;28;20680;-79
2021/07/12 08:28:44;;;;;;;;;;;24.30;99.90;;;;;;5032634;28;20380;-82
2021/07/12 08:31:11;;;;;;;;;;;24.40;99.90;;;;;;5031635;28;19984;-81
2021/07/12 08:33:37;;;;;;;;;;;24.50;99.90;;;;;;5026722;28;20054;-82
2021/07/12 08:36:03;;;;;;;;;;;24.60;99.90;;;;;;5022935;28;19995;-80
2021/07/12 08:38:28;;;;;;;;;;;24.80;99.90;;;;;;5023311;28;19949;-81
2021/07/12 08:40:55;;;;;;;;;;;24.80;99.90;;;;;;5026987;28;19909;-81
2021/07/12 08:43:21;;;;;;;;;;;24.80;99.90;;;;;;5029387;28;19913;-80
2021/07/12 08:45:46;;;;;;;;;;;24.80;99.90;;;;;;5026110;28;20415;-77
2021/07/12 08:48:14;;;;;;;;;;;25.00;99.90;;;;;;5025439;28;20011;-80
2021/07/12 08:50:40;;;;;;;;;;;25.30;99.90;;;;;;5028270;28;20427;-77
2021/07/12 08:53:05;;;;;;;;;;;25.40;99.90;;;;;;5027221;28;19912;-78
2021/07/12 08:55:31;;;;;;;;;;;25.50;99.90;;;;;;5028510;28;20287;-75
2021/07/12 08:58:19;;;;;;;;;;;25.70;99.90;;;;;;5028356;28;20272;-76
2021/07/12 09:00:47;;;;;;;;;;;26.20;99.90;;;;;;5036137;28;19909;-76
2021/07/12 09:03:20;;;;;;;;;;;26.50;99.90;;;;;;5034189;28;20277;-76
2021/07/12 09:05:50;;;;;;;;;;;26.70;99.90;;;;;;5034596;28;19917;-77
2021/07/12 09:08:31;;;;;;;;;;;27.20;99.70;;;;;;5036167;28;19954;-75
2021/07/12 09:11:12;;;;;;;;;;;27.50;99.20;;;;;;5035828;28;19909;-77
2021/07/12 09:13:41;;;;;;;;;;;27.60;99.60;;;;;;5032049;28;19936;-77
2021/07/12 09:16:25;;;;;;;;;;;28.00;98.90;;;;;;5035938;28;19913;-75
2021/07/12 09:18:50;;;;;;;;;;;28.20;98.20;;;;;;5035910;28;20251;-77
2021/07/12 09:21:16;;;;;;;;;;;27.90;98.40;;;;;;5034315;28;19999;-75
2021/07/12 09:23:41;;;;;;;;;;;27.70;99.00;;;;;;5034441;28;19939;-74
2021/07/12 09:26:08;;;;;;;;;;;27.40;98.90;;;;;;5031183;28;19913;-74
2021/07/12 09:28:41;;;;;;;;;;;27.10;99.50;;;;;;5026298;28;19913;-76
2021/07/12 09:31:25;;;;;;;;;;;26.90;99.00;;;;;;5027493;28;19909;-77
2021/07/12 09:33:51;;;;;;;;;;;26.70;99.20;;;;;;5032803;28;19909;-76
2021/07/12 09:36:16;;;;;;;;;;;26.80;99.40;;;;;;5029708;28;19916;-76
2021/07/12 09:38:42;;;;;;;;;;;26.90;99.70;;;;;;5042269;28;19916;-76
2021/07/12 09:41:26;;;;;;;;;;;27.00;99.90;;;;;;5035458;28;19909;-77
2021/07/12 09:43:58;;;;;;;;;;;27.10;99.30;;;;;;5035294;28;19913;-77
2021/07/12 09:46:27;;;;;;;;;;;27.10;99.60;;;;;;5035402;28;19916;-77
2021/07/12 09:49:22;;;;;;;;;;;27.10;99.90;;;;;;5035583;28;19919;-77
2021/07/12 09:51:51;;;;;;;;;;;27.30;99.40;;;;;;5034517;28;19909;-77
2021/07/12 09:54:20;;;;;;;;;;;27.60;98.70;;;;;;5033886;28;19944;-76
2021/07/12 09:56:49;;;;;;;;;;;27.60;99.10;;;;;;5034733;28;20250;-76
2021/07/12 09:59:16;;;;;;;;;;;27.70;99.00;;;;;;5035090;28;19909;-76
2021/07/12 10:01:45;;;;;;;;;;;27.80;99.00;;;;;;5035210;28;19909;-77
2021/07/12 10:04:11;;;;;;;;;;;27.90;98.80;;;;;;5034808;28;19944;-77
2021/07/12 10:06:37;;;;;;;;;;;28.00;98.10;;;;;;5035104;28;19909;-77
2021/07/12 10:09:02;;;;;;;;;;;27.90;98.50;;;;;;5034902;28;20566;-76
2021/07/12 10:11:28;;;;;;;;;;;27.70;99.50;;;;;;5032696;28;19909;-76
2021/07/12 10:13:54;;;;;;;;;;;28.00;98.10;;;;;;5035084;28;19991;-77
2021/07/12 10:16:19;;;;;;;;;;;28.80;97.10;;;;;;5034986;28;19909;-77
2021/07/12 10:18:45;;;;;;;;;;;29.10;96.70;;;;;;5035031;28;20277;-77
2021/07/12 10:21:11;;;;;;;;;;;29.40;95.70;;;;;;5029101;28;19909;-77
2021/07/12 10:23:37;;;;;;;;;;;29.60;96.30;;;;;;5034366;28;19909;-77
2021/07/12 10:26:03;;;;;;;;;;;29.60;96.30;;;;;;5034776;28;19917;-78
2021/07/12 10:28:41;;;;;;;;;;;29.60;96.50;;;;;;5034545;28;19909;-77
2021/07/12 10:31:20;;;;;;;;;;;29.50;95.60;;;;;;5033231;28;20345;-77
2021/07/12 10:33:45;;;;;;;;;;;29.30;95.80;;;;;;5033320;28;19913;-77
2021/07/12 10:36:11;;;;;;;;;;;29.30;96.50;;;;;;5035180;28;19962;-77
2021/07/12 10:38:38;;;;;;;;;;;29.40;96.40;;;;;;5034392;28;20003;-77
2021/07/12 10:41:23;;;;;;;;;;;29.70;96.00;;;;;;5035287;28;19913;-77
2021/07/12 10:43:52;;;;;;;;;;;30.20;95.00;;;;;;5034401;28;19920;-77
2021/07/12 10:46:24;;;;;;;;;;;30.40;94.30;;;;;;5034463;28;19935;-77
2021/07/12 10:48:50;;;;;;;;;;;30.10;95.00;;;;;;5034587;28;19916;-77
2021/07/12 10:51:19;;;;;;;;;;;29.80;94.70;;;;;;5032647;28;19909;-75
2021/07/12 10:53:56;;;;;;;;;;;29.60;93.60;;;;;;5032360;28;20007;-77
2021/07/12 10:56:22;;;;;;;;;;;29.40;94.90;;;;;;5026997;28;19913;-73
2021/07/12 10:58:48;;;;;;;;;;;29.30;95.90;;;;;;5031080;28;20263;-76
2021/07/12 11:01:18;;;;;;;;;;;29.00;95.60;;;;;;5032705;28;19967;-77
2021/07/12 11:03:44;;;;;;;;;;;28.70;94.90;;;;;;5033933;28;19917;-76
2021/07/12 11:06:14;;;;;;;;;;;28.50;95.70;;;;;;5033910;28;19909;-76
2021/07/12 11:08:43;;;;;;;;;;;28.40;95.30;;;;;;5032758;28;20356;-75
2021/07/12 11:11:10;;;;;;;;;;;28.30;96.30;;;;;;5033774;28;19916;-75
2021/07/12 11:14:00;;;;;;;;;;;28.40;96.40;;;;;;5033898;28;19909;-76
2021/07/12 11:16:26;;;;;;;;;;;28.40;95.30;;;;;;5037028;28;20384;-76
2021/07/12 11:18:56;;;;;;;;;;;28.50;96.20;;;;;;5034213;28;20007;-76
2021/07/12 11:21:32;;;;;;;;;;;28.60;95.20;;;;;;5032834;28;19909;-76
2021/07/12 11:24:06;;;;;;;;;;;28.60;95.90;;;;;;5036105;28;19913;-76
2021/07/12 11:26:32;;;;;;;;;;;28.50;95.60;;;;;;5032113;28;19908;-75
2021/07/12 11:29:10;;;;;;;;;;;28.50;95.50;;;;;;5037441;28;20007;-75
2021/07/12 11:31:38;;;;;;;;;;;28.40;95.50;;;;;;5036408;28;19909;-76
2021/07/12 11:34:15;;;;;;;;;;;28.50;95.70;;;;;;5036263;28;19916;-75
2021/07/12 11:36:51;;;;;;;;;;;28.50;95.30;;;;;;5037352;28;19909;-76
2021/07/12 11:39:17;;;;;;;;;;;28.40;94.60;;;;;;5033439;28;19959;-76
2021/07/12 11:41:43;;;;;;;;;;;28.30;95.80;;;;;;5017914;28;19913;-76
2021/07/12 11:44:09;;;;;;;;;;;28.30;95.20;;;;;;5017345;28;19913;-73
2021/07/12 11:46:35;;;;;;;;;;;28.20;94.20;;;;;;5032321;28;19996;-74
2021/07/12 11:49:21;;;;;;;;;;;28.20;95.60;;;;;;5016674;28;19913;-74
2021/07/12 11:51:51;;;;;;;;;;;28.10;95.60;;;;;;5016787;28;20384;-74
2021/07/12 11:54:22;;;;;;;;;;;28.10;95.10;;;;;;5026037;28;20000;-75
2021/07/12 11:57:01;;;;;;;;;;;28.20;94.80;;;;;;5038038;28;19909;-74
2021/07/12 11:59:32;;;;;;;;;;;28.30;94.00;;;;;;5037525;28;19955;-75
2021/07/12 12:02:04;;;;;;;;;;;28.20;94.60;;;;;;5037459;28;19962;-74
2021/07/12 12:04:42;;;;;;;;;;;28.20;95.40;;;;;;5037263;28;19928;-75
2021/07/12 12:07:26;;;;;;;;;;;28.10;95.40;;;;;;5035777;28;19935;-74
2021/07/12 12:09:53;;;;;;;;;;;27.90;94.50;;;;;;5035312;28;20358;-75
2021/07/12 12:12:26;;;;;;;;;;;27.60;95.20;;;;;;5034680;28;19963;-75
2021/07/12 12:14:59;;;;;;;;;;;27.50;95.50;;;;;;5035327;28;19909;-75
2021/07/12 12:17:25;;;;;;;;;;;27.40;95.40;;;;;;5034842;28;19909;-75
2021/07/12 12:20:00;;;;;;;;;;;27.40;95.50;;;;;;5050672;28;20289;-74
2021/07/12 12:22:26;;;;;;;;;;;27.30;96.10;;;;;;5030590;28;19909;-75
2021/07/12 12:24:53;;;;;;;;;;;27.30;96.50;;;;;;5043168;28;19913;-77
2021/07/12 12:27:18;;;;;;;;;;;27.20;95.80;;;;;;5034312;28;20281;-81
2021/07/12 12:29:44;;;;;;;;;;;27.10;95.90;;;;;;5033377;28;19909;-76
2021/07/12 12:32:09;;;;;;;;;;;27.10;96.00;;;;;;5049159;28;20016;-77
2021/07/12 12:34:35;;;;;;;;;;;27.00;96.70;;;;;;5041478;28;20005;-77
2021/07/12 12:37:04;;;;;;;;;;;26.80;96.80;;;;;;5057568;28;20321;-78
2021/07/12 12:39:30;;;;;;;;;;;26.70;96.10;;;;;;5055629;28;20081;-77
2021/07/12 12:41:57;;;;;;;;;;;26.70;96.60;;;;;;5040751;28;19948;-77
2021/07/12 12:44:31;;;;;;;;;;;26.60;96.90;;;;;;5035300;28;19920;-77
2021/07/12 12:46:57;;;;;;;;;;;26.70;95.90;;;;;;5035202;28;20365;-77
2021/07/12 12:49:33;;;;;;;;;;;26.80;95.90;;;;;;5033735;28;20316;-78
2021/07/12 12:51:59;;;;;;;;;;;26.90;95.70;;;;;;5036350;28;19916;-76
2021/07/12 12:54:27;;;;;;;;;;;26.80;97.00;;;;;;5035407;28;19956;-78
2021/07/12 12:56:55;;;;;;;;;;;26.70;96.10;;;;;;5036314;28;19913;-78
2021/07/12 12:59:29;;;;;;;;;;;26.60;96.50;;;;;;5035728;28;19909;-77
2021/07/12 13:02:00;;;;;;;;;;;26.50;96.90;;;;;;5034915;28;19909;-78
2021/07/12 13:04:25;;;;;;;;;;;26.40;96.80;;;;;;5035062;28;19921;-78
2021/07/12 13:06:53;;;;;;;;;;;26.20;96.90;;;;;;5034670;28;19955;-79
2021/07/12 13:09:25;;;;;;;;;;;26.10;97.30;;;;;;5034840;28;19955;-78
2021/07/12 13:12:04;;;;;;;;;;;26.00;97.60;;;;;;5034842;28;19909;-77
2021/07/12 13:14:30;;;;;;;;;;;25.70;98.30;;;;;;5036077;28;19913;-77
2021/07/12 13:17:02;;;;;;;;;;;25.60;98.30;;;;;;5034341;28;19909;-78
2021/07/12 13:19:28;;;;;;;;;;;25.50;98.30;;;;;;5034987;28;20341;-77
2021/07/12 13:21:54;;;;;;;;;;;25.50;98.70;;;;;;5033705;28;19939;-76
2021/07/12 13:24:38;;;;;;;;;;;25.50;99.00;;;;;;5035478;28;19927;-76
2021/07/12 13:27:04;;;;;;;;;;;25.50;99.40;;;;;;5033172;28;19909;-77
2021/07/12 13:29:30;;;;;;;;;;;25.50;98.80;;;;;;5034292;28;20380;-77
2021/07/12 13:31:56;;;;;;;;;;;25.50;99.20;;;;;;5036038;28;20306;-78
2021/07/12 13:34:21;;;;;;;;;;;25.50;99.20;;;;;;5036046;28;19909;-78
2021/07/12 13:36:48;;;;;;;;;;;25.50;99.20;;;;;;5034259;28;19955;-78
2021/07/12 13:39:13;;;;;;;;;;;25.60;98.70;;;;;;5035826;28;20389;-78
2021/07/12 13:41:39;;;;;;;;;;;25.60;98.60;;;;;;5035438;28;19955;-77
2021/07/12 13:44:04;;;;;;;;;;;25.50;98.40;;;;;;5035353;28;20000;-77
2021/07/12 13:46:30;;;;;;;;;;;25.50;98.60;;;;;;5033045;28;19909;-78
2021/07/12 13:48:55;;;;;;;;;;;25.60;98.30;;;;;;5034435;28;19916;-77
2021/07/12 13:51:23;;;;;;;;;;;25.60;98.60;;;;;;5035130;28;19916;-77
2021/07/12 13:53:49;;;;;;;;;;;25.70;98.70;;;;;;5034570;28;19916;-78
2021/07/12 13:56:14;;;;;;;;;;;25.90;98.30;;;;;;5034157;28;19909;-77
2021/07/12 14:01:24;;;;;;;;;;;26.20;98.20;;;;;;5026614;28;19924;-77
2021/07/12 14:03:49;;;;;;;;;;;26.40;98.30;;;;;;5033745;28;20336;-78
2021/07/12 14:06:15;;;;;;;;;;;26.70;97.80;;;;;;5032640;28;19909;-78
2021/07/12 14:08:41;;;;;;;;;;;27.00;97.10;;;;;;5033417;28;20362;-78
2021/07/12 14:11:07;;;;;;;;;;;27.10;97.00;;;;;;5033963;28;19913;-79
2021/07/12 14:13:32;;;;;;;;;;;27.20;96.80;;;;;;5035044;28;19913;-79
2021/07/12 14:15:58;;;;;;;;;;;27.10;96.80;;;;;;5033742;28;20016;-78
2021/07/12 14:18:23;;;;;;;;;;;27.00;97.60;;;;;;5032620;28;19954;-77
2021/07/12 14:20:49;;;;;;;;;;;27.00;96.80;;;;;;5033487;28;19976;-77
2021/07/12 14:23:14;;;;;;;;;;;27.00;96.80;;;;;;5034487;28;19909;-78